sensor_id;sensor_type;location;lat;lon;timestamp;temperature;humidity
30371;DHT22;17164;48.590;11.410;2023-08-30T00:00:19;14.20;99.90
30371;DHT22;17164;48.590;11.410;2023-08-30T00:02:47;14.10;99.90
30371;DHT22;17164;48.590;11.410;2023-08-30T00:05:13;14.10;99.90
30371;DHT22;17164;48.590;11.410;2023-08-30T00:07:39;14.10;99.90
30371;DHT22;17164;48.590;11.410;2023-08-30T00:10:07;14.10;99.90
30371;DHT22;17164;48.590;11.410;2023-08-30T00:12:33;14.10;99.90
30371;DHT22;17164;48.590;11.410;2023-08-30T00:14:58;14.10;99.90
30371;DHT22;17164;48.590;11.410;2023-08-30T00:17:24;14.10;99.90
30371;DHT22;17164;48.590;11.410;2023-08-30T00:19:50;14.10;99.90
30371;DHT22;17164;48.590;11.410;2023-08-30T00:22:16;14.10;99.90
30371;DHT22;17164;48.590;11.410;2023-08-30T00:24:41;14.10;99.90
30371;DHT22;17164;48.590;11.410;2023-08-30T00:27:07;14.00;99.90
30371;DHT22;17164;48.590;11.410;2023-08-30T00:29:33;14.00;99.90
30371;DHT22;17164;48.590;11.410;2023-08-30T00:31:58;14.00;99.90
30371;DHT22;17164;48.590;11.410;2023-08-30T00:34:24;14.00;99.90
30371;DHT22;17164;48.590;11.410;2023-08-30T00:36:49;14.00;99.90
30371;DHT22;17164;48.590;11.410;2023-08-30T00:39:15;14.00;99.90
30371;DHT22;17164;48.590;11.410;2023-08-30T00:41:40;14.00;99.90
30371;DHT22;17164;48.590;11.410;2023-08-30T00:44:06;14.00;99.90
30371;DHT22;17164;48.590;11.410;2023-08-30T00:46:35;14.00;99.90
30371;DHT22;17164;48.590;11.410;2023-08-30T00:49:01;14.00;99.90
30371;DHT22;17164;48.590;11.410;2023-08-30T00:51:27;14.00;99.90
30371;DHT22;17164;48.590;11.410;2023-08-30T00:53:57;14.00;99.90
30371;DHT22;17164;48.590;11.410;2023-08-30T00:56:23;14.00;99.90
30371;DHT22;17164;48.590;11.410;2023-08-30T00:58:49;14.00;99.90
30371;DHT22;17164;48.590;11.410;2023-08-30T01:01:16;14.00;99.90
30371;DHT22;17164;48.590;11.410;2023-08-30T01:03:42;14.00;99.90
30371;DHT22;17164;48.590;11.410;2023-08-30T01:06:08;14.00;99.90
30371;DHT22;17164;48.590;11.410;2023-08-30T01:08:35;14.00;99.90
30371;DHT22;17164;48.590;11.410;2023-08-30T01:11:11;14.00;99.90
30371;DHT22;17164;48.590;11.410;2023-08-30T01:13:48;14.00;99.90
30371;DHT22;17164;48.590;11.410;2023-08-30T01:16:15;14.00;99.90
30371;DHT22;17164;48.590;11.410;2023-08-30T01:18:42;14.00;99.90
30371;DHT22;17164;48.590;11.410;2023-08-30T01:21:13;14.00;99.90
30371;DHT22;17164;48.590;11.410;2023-08-30T01:23:56;14.00;99.90
30371;DHT22;17164;48.590;11.410;2023-08-30T01:26:41;14.00;99.90
30371;DHT22;17164;48.590;11.410;2023-08-30T01:29:09;14.00;99.90
30371;DHT22;17164;48.590;11.410;2023-08-30T01:31:35;14.10;99.90
30371;DHT22;17164;48.590;11.410;2023-08-30T01:34:03;14.10;99.90
30371;DHT22;17164;48.590;11.410;2023-08-30T01:36:30;14.10;99.90
30371;DHT22;17164;48.590;11.410;2023-08-30T01:38:58;14.10;99.90
30371;DHT22;17164;48.590;11.410;2023-08-30T01:41:25;14.10;99.90
30371;DHT22;17164;48.590;11.410;2023-08-30T01:43:51;14.00;99.90
30371;DHT22;17164;48.590;11.410;2023-08-30T01:46:18;14.10;99.90
30371;DHT22;17164;48.590;11.410;2023-08-30T01:48:46;14.10;99.90
30371;DHT22;17164;48.590;11.410;2023-08-30T01:51:14;14.10;99.90
30371;DHT22;17164;48.590;11.410;2023-08-30T01:53:42;14.10;99.90
30371;DHT22;17164;48.590;11.410;2023-08-30T01:56:08;14.10;99.90
30371;DHT22;17164;48.590;11.410;2023-08-30T01:58:34;14.00;99.90
30371;DHT22;17164;48.590;11.410;2023-08-30T02:01:00;14.00;99.90
30371;DHT22;17164;48.590;11.410;2023-08-30T02:03:25;14.00;99.90
30371;DHT22;17164;48.590;11.410;2023-08-30T02:06:02;14.00;99.90
30371;DHT22;17164;48.590;11.410;2023-08-30T02:08:40;14.00;99.90
30371;DHT22;17164;48.590;11.410;2023-08-30T02:11:11;14.00;99.90
30371;DHT22;17164;48.590;11.410;2023-08-30T02:13:38;14.10;99.90
30371;DHT22;17164;48.590;11.410;2023-08-30T02:16:05;14.10;99.90
30371;DHT22;17164;48.590;11.410;2023-08-30T02:18:32;14.10;99.90
30371;DHT22;17164;48.590;11.410;2023-08-30T02:20:57;14.00;99.90
30371;DHT22;17164;48.590;11.410;2023-08-30T02:23:26;14.10;99.90
30371;DHT22;17164;48.590;11.410;2023-08-30T02:25:53;14.10;99.90
30371;DHT22;17164;48.590;11.410;2023-08-30T02:28:19;14.10;99.90
30371;DHT22;17164;48.590;11.410;2023-08-30T02:30:44;14.10;99.90
30371;DHT22;17164;48.590;11.410;2023-08-30T02:33:10;14.10;99.90
30371;DHT22;17164;48.590;11.410;2023-08-30T02:35:36;14.10;99.90
30371;DHT22;17164;48.590;11.410;2023-08-30T02:38:01;14.10;99.90
30371;DHT22;17164;48.590;11.410;2023-08-30T02:40:30;14.10;99.90
30371;DHT22;17164;48.590;11.410;2023-08-30T02:42:56;14.10;99.90
30371;DHT22;17164;48.590;11.410;2023-08-30T02:45:22;14.00;99.90
30371;DHT22;17164;48.590;11.410;2023-08-30T02:47:48;14.10;99.90
30371;DHT22;17164;48.590;11.410;2023-08-30T02:50:14;14.00;99.90
30371;DHT22;17164;48.590;11.410;2023-08-30T02:52:39;14.00;99.90
30371;DHT22;17164;48.590;11.410;2023-08-30T02:55:05;14.00;99.90
30371;DHT22;17164;48.590;11.410;2023-08-30T02:57:31;14.00;99.90
30371;DHT22;17164;48.590;11.410;2023-08-30T02:59:57;14.00;99.90
30371;DHT22;17164;48.590;11.410;2023-08-30T03:02:22;14.00;99.90
30371;DHT22;17164;48.590;11.410;2023-08-30T03:04:48;14.00;99.90
30371;DHT22;17164;48.590;11.410;2023-08-30T03:07:14;14.00;99.90
30371;DHT22;17164;48.590;11.410;2023-08-30T03:09:39;14.00;99.90
30371;DHT22;17164;48.590;11.410;2023-08-30T03:12:06;14.00;99.90
30371;DHT22;17164;48.590;11.410;2023-08-30T03:14:32;14.00;99.90
30371;DHT22;17164;48.590;11.410;2023-08-30T03:16:57;14.00;99.90
30371;DHT22;17164;48.590;11.410;2023-08-30T03:19:23;14.00;99.90
30371;DHT22;17164;48.590;11.410;2023-08-30T03:21:48;13.90;99.90
30371;DHT22;17164;48.590;11.410;2023-08-30T03:24:14;14.00;99.90
30371;DHT22;17164;48.590;11.410;2023-08-30T03:26:43;14.00;99.90
30371;DHT22;17164;48.590;11.410;2023-08-30T03:29:09;14.00;99.90
30371;DHT22;17164;48.590;11.410;2023-08-30T03:31:34;14.00;99.90
30371;DHT22;17164;48.590;11.410;2023-08-30T03:34:00;14.00;99.90
30371;DHT22;17164;48.590;11.410;2023-08-30T03:36:26;14.00;99.90
30371;DHT22;17164;48.590;11.410;2023-08-30T03:38:51;14.00;99.90
30371;DHT22;17164;48.590;11.410;2023-08-30T03:41:17;14.00;99.90
30371;DHT22;17164;48.590;11.410;2023-08-30T03:43:43;14.00;99.90
30371;DHT22;17164;48.590;11.410;2023-08-30T03:46:09;14.00;99.90
30371;DHT22;17164;48.590;11.410;2023-08-30T03:48:37;14.00;99.90
30371;DHT22;17164;48.590;11.410;2023-08-30T03:51:03;14.00;99.90
30371;DHT22;17164;48.590;11.410;2023-08-30T03:53:28;14.00;99.90
30371;DHT22;17164;48.590;11.410;2023-08-30T03:55:55;14.00;99.90
30371;DHT22;17164;48.590;11.410;2023-08-30T03:58:21;14.00;99.90
30371;DHT22;17164;48.590;11.410;2023-08-30T04:00:46;13.90;99.90
30371;DHT22;17164;48.590;11.410;2023-08-30T04:03:13;13.90;99.90
30371;DHT22;17164;48.590;11.410;2023-08-30T04:05:39;13.90;99.90
30371;DHT22;17164;48.590;11.410;2023-08-30T04:08:06;13.90;99.90
30371;DHT22;17164;48.590;11.410;2023-08-30T04:10:36;13.90;99.90
30371;DHT22;17164;48.590;11.410;2023-08-30T04:13:03;13.90;99.90
30371;DHT22;17164;48.590;11.410;2023-08-30T04:15:28;13.90;99.90
30371;DHT22;17164;48.590;11.410;2023-08-30T04:17:54;13.90;99.90
30371;DHT22;17164;48.590;11.410;2023-08-30T04:20:20;13.90;99.90
30371;DHT22;17164;48.590;11.410;2023-08-30T04:22:45;13.90;99.90
30371;DHT22;17164;48.590;11.410;2023-08-30T04:25:11;13.90;99.90
30371;DHT22;17164;48.590;11.410;2023-08-30T04:27:36;13.90;99.90
30371;DHT22;17164;48.590;11.410;2023-08-30T04:30:02;13.90;99.90
30371;DHT22;17164;48.590;11.410;2023-08-30T04:32:28;13.90;99.90
30371;DHT22;17164;48.590;11.410;2023-08-30T04:34:54;13.80;99.90
30371;DHT22;17164;48.590;11.410;2023-08-30T04:37:19;13.80;99.90
30371;DHT22;17164;48.590;11.410;2023-08-30T04:39:48;13.80;99.90
30371;DHT22;17164;48.590;11.410;2023-08-30T04:42:14;13.80;99.90
30371;DHT22;17164;48.590;11.410;2023-08-30T04:44:40;13.80;99.90
30371;DHT22;17164;48.590;11.410;2023-08-30T04:47:05;13.80;99.90
30371;DHT22;17164;48.590;11.410;2023-08-30T04:49:31;13.80;99.90
30371;DHT22;17164;48.590;11.410;2023-08-30T04:51:57;13.90;99.90
30371;DHT22;17164;48.590;11.410;2023-08-30T04:54:22;13.90;99.90
30371;DHT22;17164;48.590;11.410;2023-08-30T04:56:48;13.90;99.90
30371;DHT22;17164;48.590;11.410;2023-08-30T04:59:13;13.80;99.90
30371;DHT22;17164;48.590;11.410;2023-08-30T05:01:39;13.80;99.90
30371;DHT22;17164;48.590;11.410;2023-08-30T05:04:07;13.90;99.90
30371;DHT22;17164;48.590;11.410;2023-08-30T05:06:33;13.90;99.90
30371;DHT22;17164;48.590;11.410;2023-08-30T05:08:59;13.90;99.90
30371;DHT22;17164;48.590;11.410;2023-08-30T05:11:24;13.90;99.90
30371;DHT22;17164;48.590;11.410;2023-08-30T05:13:50;13.90;99.90
30371;DHT22;17164;48.590;11.410;2023-08-30T05:16:15;13.90;99.90
30371;DHT22;17164;48.590;11.410;2023-08-30T05:18:41;13.90;99.90
30371;DHT22;17164;48.590;11.410;2023-08-30T05:21:06;13.90;99.90
30371;DHT22;17164;48.590;11.410;2023-08-30T05:23:32;14.00;99.90
30371;DHT22;17164;48.590;11.410;2023-08-30T05:25:58;13.90;99.90
30371;DHT22;17164;48.590;11.410;2023-08-30T05:28:23;14.00;99.90
30371;DHT22;17164;48.590;11.410;2023-08-30T05:30:49;14.00;99.90
30371;DHT22;17164;48.590;11.410;2023-08-30T05:33:14;14.00;99.90
30371;DHT22;17164;48.590;11.410;2023-08-30T05:35:40;14.00;99.90
30371;DHT22;17164;48.590;11.410;2023-08-30T05:38:06;14.10;99.90
30371;DHT22;17164;48.590;11.410;2023-08-30T05:40:32;14.10;99.90
30371;DHT22;17164;48.590;11.410;2023-08-30T05:42:57;14.10;99.90
30371;DHT22;17164;48.590;11.410;2023-08-30T05:45:23;14.10;99.90
30371;DHT22;17164;48.590;11.410;2023-08-30T05:47:48;14.10;99.90
30371;DHT22;17164;48.590;11.410;2023-08-30T05:50:14;14.20;99.90
30371;DHT22;17164;48.590;11.410;2023-08-30T05:52:40;14.10;99.90
30371;DHT22;17164;48.590;11.410;2023-08-30T05:55:08;14.20;99.90
30371;DHT22;17164;48.590;11.410;2023-08-30T05:57:34;14.20;99.90
30371;DHT22;17164;48.590;11.410;2023-08-30T06:00:00;14.20;99.90
30371;DHT22;17164;48.590;11.410;2023-08-30T06:02:26;14.20;99.90
30371;DHT22;17164;48.590;11.410;2023-08-30T06:04:52;14.20;99.90
30371;DHT22;17164;48.590;11.410;2023-08-30T06:07:18;14.20;99.90
30371;DHT22;17164;48.590;11.410;2023-08-30T06:09:44;14.20;99.90
30371;DHT22;17164;48.590;11.410;2023-08-30T06:12:10;14.30;99.90
30371;DHT22;17164;48.590;11.410;2023-08-30T06:14:35;14.30;99.90
30371;DHT22;17164;48.590;11.410;2023-08-30T06:17:01;14.30;99.90
30371;DHT22;17164;48.590;11.410;2023-08-30T06:19:27;14.30;99.90
30371;DHT22;17164;48.590;11.410;2023-08-30T06:21:53;14.30;99.90
30371;DHT22;17164;48.590;11.410;2023-08-30T06:24:18;14.30;99.90
30371;DHT22;17164;48.590;11.410;2023-08-30T06:26:44;14.40;99.90
30371;DHT22;17164;48.590;11.410;2023-08-30T06:29:10;14.40;99.90
30371;DHT22;17164;48.590;11.410;2023-08-30T06:31:35;14.40;99.90
30371;DHT22;17164;48.590;11.410;2023-08-30T06:34:01;14.50;99.90
30371;DHT22;17164;48.590;11.410;2023-08-30T06:36:26;14.50;99.90
30371;DHT22;17164;48.590;11.410;2023-08-30T06:38:52;14.50;99.90
30371;DHT22;17164;48.590;11.410;2023-08-30T06:41:18;14.60;99.90
30371;DHT22;17164;48.590;11.410;2023-08-30T06:43:43;14.60;99.90
30371;DHT22;17164;48.590;11.410;2023-08-30T06:46:09;14.60;99.90
30371;DHT22;17164;48.590;11.410;2023-08-30T06:48:34;14.60;99.90
30371;DHT22;17164;48.590;11.410;2023-08-30T06:51:00;14.70;99.90
30371;DHT22;17164;48.590;11.410;2023-08-30T06:53:29;14.80;99.90
30371;DHT22;17164;48.590;11.410;2023-08-30T06:55:59;14.80;99.90
30371;DHT22;17164;48.590;11.410;2023-08-30T06:58:25;14.80;99.90
30371;DHT22;17164;48.590;11.410;2023-08-30T07:00:51;14.90;99.90
30371;DHT22;17164;48.590;11.410;2023-08-30T07:03:17;14.90;99.90
30371;DHT22;17164;48.590;11.410;2023-08-30T07:05:42;14.90;99.90
30371;DHT22;17164;48.590;11.410;2023-08-30T07:08:09;15.00;99.90
30371;DHT22;17164;48.590;11.410;2023-08-30T07:10:34;15.00;99.90
30371;DHT22;17164;48.590;11.410;2023-08-30T07:13:00;15.10;99.90
30371;DHT22;17164;48.590;11.410;2023-08-30T07:15:26;15.10;99.90
30371;DHT22;17164;48.590;11.410;2023-08-30T07:17:51;15.10;99.90
30371;DHT22;17164;48.590;11.410;2023-08-30T07:20:17;15.20;99.90
30371;DHT22;17164;48.590;11.410;2023-08-30T07:22:42;15.20;99.90
30371;DHT22;17164;48.590;11.410;2023-08-30T07:25:08;15.20;99.90
30371;DHT22;17164;48.590;11.410;2023-08-30T07:27:36;15.30;99.90
30371;DHT22;17164;48.590;11.410;2023-08-30T07:30:02;15.40;99.90
30371;DHT22;17164;48.590;11.410;2023-08-30T07:32:29;15.40;99.90
30371;DHT22;17164;48.590;11.410;2023-08-30T07:34:55;15.50;99.90
30371;DHT22;17164;48.590;11.410;2023-08-30T07:37:21;15.50;99.90
30371;DHT22;17164;48.590;11.410;2023-08-30T07:39:47;15.60;99.90
30371;DHT22;17164;48.590;11.410;2023-08-30T07:42:14;15.60;99.90
30371;DHT22;17164;48.590;11.410;2023-08-30T07:44:42;15.60;99.90
30371;DHT22;17164;48.590;11.410;2023-08-30T07:47:08;15.60;99.90
30371;DHT22;17164;48.590;11.410;2023-08-30T07:49:33;15.70;99.90
30371;DHT22;17164;48.590;11.410;2023-08-30T07:51:59;15.70;99.90
30371;DHT22;17164;48.590;11.410;2023-08-30T07:54:24;15.70;99.90
30371;DHT22;17164;48.590;11.410;2023-08-30T07:56:50;15.80;99.90
30371;DHT22;17164;48.590;11.410;2023-08-30T07:59:15;15.80;99.90
30371;DHT22;17164;48.590;11.410;2023-08-30T08:01:41;15.90;99.90
30371;DHT22;17164;48.590;11.410;2023-08-30T08:04:07;15.90;99.90
30371;DHT22;17164;48.590;11.410;2023-08-30T08:06:32;16.00;99.90
30371;DHT22;17164;48.590;11.410;2023-08-30T08:08:58;16.10;99.90
30371;DHT22;17164;48.590;11.410;2023-08-30T08:11:24;16.10;99.90
30371;DHT22;17164;48.590;11.410;2023-08-30T08:13:49;16.10;99.90
30371;DHT22;17164;48.590;11.410;2023-08-30T08:16:15;16.20;99.90
30371;DHT22;17164;48.590;11.410;2023-08-30T08:18:41;16.10;99.90
30371;DHT22;17164;48.590;11.410;2023-08-30T08:21:06;16.20;99.90
30371;DHT22;17164;48.590;11.410;2023-08-30T08:23:32;16.20;99.90
30371;DHT22;17164;48.590;11.410;2023-08-30T08:25:58;16.30;99.90
30371;DHT22;17164;48.590;11.410;2023-08-30T08:28:24;16.30;99.90
30371;DHT22;17164;48.590;11.410;2023-08-30T08:30:50;16.40;99.90
30371;DHT22;17164;48.590;11.410;2023-08-30T08:33:17;16.40;99.90
30371;DHT22;17164;48.590;11.410;2023-08-30T08:35:44;16.40;99.90
30371;DHT22;17164;48.590;11.410;2023-08-30T08:38:10;16.50;99.90
30371;DHT22;17164;48.590;11.410;2023-08-30T08:40:39;16.50;99.90
30371;DHT22;17164;48.590;11.410;2023-08-30T08:43:05;16.60;99.90
30371;DHT22;17164;48.590;11.410;2023-08-30T08:45:37;16.70;99.90
30371;DHT22;17164;48.590;11.410;2023-08-30T08:48:06;16.70;99.90
30371;DHT22;17164;48.590;11.410;2023-08-30T08:50:33;16.80;99.90
30371;DHT22;17164;48.590;11.410;2023-08-30T08:52:59;16.80;99.90
30371;DHT22;17164;48.590;11.410;2023-08-30T08:55:28;16.80;99.90
30371;DHT22;17164;48.590;11.410;2023-08-30T08:57:57;16.80;99.90
30371;DHT22;17164;48.590;11.410;2023-08-30T09:00:23;16.80;99.90
30371;DHT22;17164;48.590;11.410;2023-08-30T09:02:49;16.80;99.90
30371;DHT22;17164;48.590;11.410;2023-08-30T09:05:18;16.90;99.90
30371;DHT22;17164;48.590;11.410;2023-08-30T09:07:44;16.90;99.90
30371;DHT22;17164;48.590;11.410;2023-08-30T09:10:10;17.00;99.90
30371;DHT22;17164;48.590;11.410;2023-08-30T09:12:36;17.10;99.90
30371;DHT22;17164;48.590;11.410;2023-08-30T09:15:02;17.10;99.90
30371;DHT22;17164;48.590;11.410;2023-08-30T09:17:37;17.20;99.90
30371;DHT22;17164;48.590;11.410;2023-08-30T09:20:10;17.30;99.90
30371;DHT22;17164;48.590;11.410;2023-08-30T09:22:38;17.40;99.90
30371;DHT22;17164;48.590;11.410;2023-08-30T09:25:04;17.40;99.90
30371;DHT22;17164;48.590;11.410;2023-08-30T09:27:33;17.50;99.90
30371;DHT22;17164;48.590;11.410;2023-08-30T09:29:59;17.60;99.90
30371;DHT22;17164;48.590;11.410;2023-08-30T09:32:25;17.60;99.90
30371;DHT22;17164;48.590;11.410;2023-08-30T09:34:51;17.70;99.90
30371;DHT22;17164;48.590;11.410;2023-08-30T09:37:23;17.80;99.90
30371;DHT22;17164;48.590;11.410;2023-08-30T09:39:50;17.80;99.90
30371;DHT22;17164;48.590;11.410;2023-08-30T09:42:17;17.90;99.90
30371;DHT22;17164;48.590;11.410;2023-08-30T09:44:43;18.00;99.90
30371;DHT22;17164;48.590;11.410;2023-08-30T09:47:09;18.10;99.90
30371;DHT22;17164;48.590;11.410;2023-08-30T09:49:43;18.10;99.90
30371;DHT22;17164;48.590;11.410;2023-08-30T09:52:10;18.10;99.90
30371;DHT22;17164;48.590;11.410;2023-08-30T09:54:36;18.10;99.90
30371;DHT22;17164;48.590;11.410;2023-08-30T09:57:07;18.20;99.90
30371;DHT22;17164;48.590;11.410;2023-08-30T09:59:33;18.30;99.90
30371;DHT22;17164;48.590;11.410;2023-08-30T10:01:58;18.50;99.90
30371;DHT22;17164;48.590;11.410;2023-08-30T10:04:26;18.60;99.90
30371;DHT22;17164;48.590;11.410;2023-08-30T10:06:53;18.60;99.90
30371;DHT22;17164;48.590;11.410;2023-08-30T10:09:21;18.70;99.90
30371;DHT22;17164;48.590;11.410;2023-08-30T10:11:47;18.80;99.90
30371;DHT22;17164;48.590;11.410;2023-08-30T10:14:13;18.90;99.90
30371;DHT22;17164;48.590;11.410;2023-08-30T10:16:46;18.90;99.90
30371;DHT22;17164;48.590;11.410;2023-08-30T10:19:16;18.80;99.90
30371;DHT22;17164;48.590;11.410;2023-08-30T10:21:45;18.90;99.90
30371;DHT22;17164;48.590;11.410;2023-08-30T10:24:14;19.00;99.90
30371;DHT22;17164;48.590;11.410;2023-08-30T10:26:43;19.10;99.90
30371;DHT22;17164;48.590;11.410;2023-08-30T10:29:10;19.30;99.90
30371;DHT22;17164;48.590;11.410;2023-08-30T10:31:38;19.40;99.90
30371;DHT22;17164;48.590;11.410;2023-08-30T10:34:15;19.50;99.90
30371;DHT22;17164;48.590;11.410;2023-08-30T10:36:45;19.60;99.90
30371;DHT22;17164;48.590;11.410;2023-08-30T10:39:33;19.50;99.90
30371;DHT22;17164;48.590;11.410;2023-08-30T10:41:59;19.40;99.90
30371;DHT22;17164;48.590;11.410;2023-08-30T10:44:25;19.20;99.90
30371;DHT22;17164;48.590;11.410;2023-08-30T10:46:54;19.10;99.90
30371;DHT22;17164;48.590;11.410;2023-08-30T10:49:20;18.90;99.90
30371;DHT22;17164;48.590;11.410;2023-08-30T10:51:54;18.80;99.90
30371;DHT22;17164;48.590;11.410;2023-08-30T10:54:20;18.70;99.90
30371;DHT22;17164;48.590;11.410;2023-08-30T10:56:59;18.70;99.90
30371;DHT22;17164;48.590;11.410;2023-08-30T10:59:26;18.70;99.90
30371;DHT22;17164;48.590;11.410;2023-08-30T11:01:53;18.60;99.90
30371;DHT22;17164;48.590;11.410;2023-08-30T11:04:19;18.60;99.90
30371;DHT22;17164;48.590;11.410;2023-08-30T11:06:48;18.60;99.90
30371;DHT22;17164;48.590;11.410;2023-08-30T11:09:15;18.60;99.90
30371;DHT22;17164;48.590;11.410;2023-08-30T11:11:43;18.80;99.90
30371;DHT22;17164;48.590;11.410;2023-08-30T11:14:09;18.80;99.90
30371;DHT22;17164;48.590;11.410;2023-08-30T11:16:36;19.00;99.90
30371;DHT22;17164;48.590;11.410;2023-08-30T11:19:03;19.00;99.90
30371;DHT22;17164;48.590;11.410;2023-08-30T11:21:37;19.10;99.90
30371;DHT22;17164;48.590;11.410;2023-08-30T11:24:04;19.10;99.90
30371;DHT22;17164;48.590;11.410;2023-08-30T11:26:30;19.20;99.90
30371;DHT22;17164;48.590;11.410;2023-08-30T11:28:55;19.20;99.90
30371;DHT22;17164;48.590;11.410;2023-08-30T11:31:25;19.40;99.90
30371;DHT22;17164;48.590;11.410;2023-08-30T11:33:56;19.40;99.90
30371;DHT22;17164;48.590;11.410;2023-08-30T11:36:25;19.40;99.90
30371;DHT22;17164;48.590;11.410;2023-08-30T11:38:52;19.40;99.90
30371;DHT22;17164;48.590;11.410;2023-08-30T11:41:20;19.30;99.90
30371;DHT22;17164;48.590;11.410;2023-08-30T11:43:47;19.20;99.90
30371;DHT22;17164;48.590;11.410;2023-08-30T11:46:13;19.30;99.90
30371;DHT22;17164;48.590;11.410;2023-08-30T11:48:40;19.40;99.90
30371;DHT22;17164;48.590;11.410;2023-08-30T11:51:06;19.50;99.90
30371;DHT22;17164;48.590;11.410;2023-08-30T11:53:33;19.60;99.90
30371;DHT22;17164;48.590;11.410;2023-08-30T11:55:59;19.70;99.90
30371;DHT22;17164;48.590;11.410;2023-08-30T11:58:24;19.70;99.90
30371;DHT22;17164;48.590;11.410;2023-08-30T12:00:51;19.70;99.90
30371;DHT22;17164;48.590;11.410;2023-08-30T12:03:18;19.90;99.90
30371;DHT22;17164;48.590;11.410;2023-08-30T12:05:49;20.10;99.90
30371;DHT22;17164;48.590;11.410;2023-08-30T12:08:26;20.30;99.90
30371;DHT22;17164;48.590;11.410;2023-08-30T12:10:52;20.40;99.90
30371;DHT22;17164;48.590;11.410;2023-08-30T12:13:33;20.40;99.90
30371;DHT22;17164;48.590;11.410;2023-08-30T12:16:00;20.40;99.90
30371;DHT22;17164;48.590;11.410;2023-08-30T12:18:28;20.30;99.90
30371;DHT22;17164;48.590;11.410;2023-08-30T12:21:02;20.20;99.90
30371;DHT22;17164;48.590;11.410;2023-08-30T12:23:30;20.00;99.90
30371;DHT22;17164;48.590;11.410;2023-08-30T12:26:04;19.80;99.90
30371;DHT22;17164;48.590;11.410;2023-08-30T12:28:34;19.70;99.90
30371;DHT22;17164;48.590;11.410;2023-08-30T12:31:01;19.60;99.90
30371;DHT22;17164;48.590;11.410;2023-08-30T12:33:27;19.50;99.90
30371;DHT22;17164;48.590;11.410;2023-08-30T12:35:56;19.40;99.90
30371;DHT22;17164;48.590;11.410;2023-08-30T12:38:22;19.30;99.90
30371;DHT22;17164;48.590;11.410;2023-08-30T12:40:52;19.20;99.90
30371;DHT22;17164;48.590;11.410;2023-08-30T12:43:19;19.10;99.90
30371;DHT22;17164;48.590;11.410;2023-08-30T12:45:45;19.00;99.90
30371;DHT22;17164;48.590;11.410;2023-08-30T12:48:12;19.00;99.90
30371;DHT22;17164;48.590;11.410;2023-08-30T12:50:41;19.00;99.90
30371;DHT22;17164;48.590;11.410;2023-08-30T12:53:07;19.00;99.90
30371;DHT22;17164;48.590;11.410;2023-08-30T12:55:33;18.90;99.90
30371;DHT22;17164;48.590;11.410;2023-08-30T12:58:00;18.90;99.90
30371;DHT22;17164;48.590;11.410;2023-08-30T13:00:26;18.90;99.90
30371;DHT22;17164;48.590;11.410;2023-08-30T13:02:51;18.90;99.90
30371;DHT22;17164;48.590;11.410;2023-08-30T13:05:17;18.90;99.90
30371;DHT22;17164;48.590;11.410;2023-08-30T13:07:43;18.90;99.90
30371;DHT22;17164;48.590;11.410;2023-08-30T13:10:10;18.80;99.90
30371;DHT22;17164;48.590;11.410;2023-08-30T13:12:36;18.80;99.90
30371;DHT22;17164;48.590;11.410;2023-08-30T13:15:02;18.80;99.90
30371;DHT22;17164;48.590;11.410;2023-08-30T13:17:28;18.90;99.90
30371;DHT22;17164;48.590;11.410;2023-08-30T13:19:54;18.90;99.90
30371;DHT22;17164;48.590;11.410;2023-08-30T13:22:20;18.80;99.90
30371;DHT22;17164;48.590;11.410;2023-08-30T13:24:46;18.80;99.90
30371;DHT22;17164;48.590;11.410;2023-08-30T13:27:13;18.90;99.90
30371;DHT22;17164;48.590;11.410;2023-08-30T13:29:38;18.90;99.90
30371;DHT22;17164;48.590;11.410;2023-08-30T13:32:04;19.00;99.90
30371;DHT22;17164;48.590;11.410;2023-08-30T13:34:30;19.10;99.90
30371;DHT22;17164;48.590;11.410;2023-08-30T13:36:56;19.30;99.90
30371;DHT22;17164;48.590;11.410;2023-08-30T13:39:22;19.50;99.90
30371;DHT22;17164;48.590;11.410;2023-08-30T13:41:47;19.50;99.90
30371;DHT22;17164;48.590;11.410;2023-08-30T13:44:14;19.70;99.90
30371;DHT22;17164;48.590;11.410;2023-08-30T13:46:39;19.90;99.90
30371;DHT22;17164;48.590;11.410;2023-08-30T13:49:05;20.10;99.90
30371;DHT22;17164;48.590;11.410;2023-08-30T13:51:31;20.30;99.90
30371;DHT22;17164;48.590;11.410;2023-08-30T13:53:56;20.40;99.90
30371;DHT22;17164;48.590;11.410;2023-08-30T13:56:23;20.60;99.90
30371;DHT22;17164;48.590;11.410;2023-08-30T13:58:49;20.80;99.90
30371;DHT22;17164;48.590;11.410;2023-08-30T14:01:16;20.80;99.90
30371;DHT22;17164;48.590;11.410;2023-08-30T14:03:42;20.90;99.90
30371;DHT22;17164;48.590;11.410;2023-08-30T14:06:08;21.00;99.90
30371;DHT22;17164;48.590;11.410;2023-08-30T14:08:33;21.10;99.90
30371;DHT22;17164;48.590;11.410;2023-08-30T14:10:59;21.20;99.90
30371;DHT22;17164;48.590;11.410;2023-08-30T14:13:25;21.30;99.90
30371;DHT22;17164;48.590;11.410;2023-08-30T14:15:50;21.40;99.90
30371;DHT22;17164;48.590;11.410;2023-08-30T14:18:16;21.50;99.90
30371;DHT22;17164;48.590;11.410;2023-08-30T14:20:42;21.70;99.90
30371;DHT22;17164;48.590;11.410;2023-08-30T14:23:09;21.80;99.90
30371;DHT22;17164;48.590;11.410;2023-08-30T14:25:35;21.90;99.90
30371;DHT22;17164;48.590;11.410;2023-08-30T14:28:01;22.10;99.90
30371;DHT22;17164;48.590;11.410;2023-08-30T14:30:27;22.10;99.90
30371;DHT22;17164;48.590;11.410;2023-08-30T14:32:52;22.20;99.90
30371;DHT22;17164;48.590;11.410;2023-08-30T14:35:18;22.20;99.90
30371;DHT22;17164;48.590;11.410;2023-08-30T14:37:49;22.30;99.90
30371;DHT22;17164;48.590;11.410;2023-08-30T14:40:15;22.40;99.90
30371;DHT22;17164;48.590;11.410;2023-08-30T14:42:41;22.50;99.90
30371;DHT22;17164;48.590;11.410;2023-08-30T14:45:07;22.70;99.90
30371;DHT22;17164;48.590;11.410;2023-08-30T14:47:33;22.90;99.90
30371;DHT22;17164;48.590;11.410;2023-08-30T14:49:59;22.90;99.90
30371;DHT22;17164;48.590;11.410;2023-08-30T14:52:26;23.00;99.90
30371;DHT22;17164;48.590;11.410;2023-08-30T14:54:52;22.80;99.90
30371;DHT22;17164;48.590;11.410;2023-08-30T14:57:18;22.50;99.90
30371;DHT22;17164;48.590;11.410;2023-08-30T14:59:43;22.10;99.90
30371;DHT22;17164;48.590;11.410;2023-08-30T15:02:09;21.50;99.90
30371;DHT22;17164;48.590;11.410;2023-08-30T15:04:34;21.10;99.90
30371;DHT22;17164;48.590;11.410;2023-08-30T15:07:00;20.60;99.90
30371;DHT22;17164;48.590;11.410;2023-08-30T15:09:25;20.20;99.90
30371;DHT22;17164;48.590;11.410;2023-08-30T15:11:51;19.90;99.90